Česky Dansk Deutsch English Español Suomi Français Magyar Italiano Nederlands norsk Polski Português svenska Türkçe

 

Het Weer

Linkoping / Malmen (Zweden)

19:50, 16 augustus 2016 (GMT)

NWNNE
WE
SWSSE
Home            
Linkoping / Malmen Linkoping / Saab Norrkoping Skovde Flygplats Stockholm/Skavsta Orebro Private Hultsfred Swedish Air Force Base Jonkoping Flygplats Vasteras / Hasslo Hagshult Karlstad Flygplats Satenas Karlstad Stockholm / Bromma Vaxjo Trollhattan Private Visby Flygplats Kalmar Stockholm / Arlanda Uppsala Goteborg / Landvetter Goteborg / Save Borlange

Om een weerknop op uw website of weblog te plaatsen, copieer onderstaande code en plak die in uw pagina. In het eerste vakje staat HTML-code, in het tweede vakje UBB-code.


Add to Google

Details

Wind speed:2 bf, 5 kn, 2.6 m/s, 5.8 miles/h, 9.3 km/h
Wind direction:W, 270°
Visibility:Greater than 10000 m, 10 km, 32800 ft, 6.2 miles
Temperature:14°C, 57°F
Dew-point:9°C, 48°F
Atmospheric pressure:1016 hPa, 762.1 mmHg, 30.00 inHg, 1.003 atm
Relative humidity:71.8 %
METAR:ESCF 161950Z AUTO 27005KT 9999 NCD 14/09 Q1016

Snelkoppelingen

Actuele weersinformatie van de hele wereld. Voeg locaties toe met het plus (+) symbool. Deze snelkoppelingen kunnen worden toegevoegd aan Google.

Lid van de Technetium groep

website free tracking
StatCounter NetStat W3C Validator

14-07-2020 03:48:19
astro.technetium.be money.technetium.be phote.technetium.be tafeltennistafel.technetium.be www.ligfiets.net